Time;durP1;ratioP1;P1;durP2;ratioP2;P2;SDS_P1;SDS_P2;PMS_P1;PMS_P2;Temp;Humidity;BMP_temperature;BMP_pressure;BME280_temperature;BME280_humidity;BME280_pressure;Samples;Min_cycle;Max_cycle;Signal;HPM_P1;HPM_P2
2021/10/11 00:02:23;;;;;;;80.95;39.80;;;;;;;8.08;100.00;101808.75;5094417;28;20497;-84
2021/10/11 00:04:49;;;;;;;81.73;42.23;;;;;;;8.10;100.00;101822.78;5073826;28;20145;-87
2021/10/11 00:07:16;;;;;;;93.82;45.33;;;;;;;8.04;100.00;101833.91;5076876;28;20050;-87
2021/10/11 00:09:43;;;;;;;80.43;41.47;;;;;;;8.08;100.00;101842.47;5093632;28;20093;-84
2021/10/11 00:12:08;;;;;;;87.72;45.40;;;;;;;8.09;100.00;101842.38;5075859;28;20036;-87
2021/10/11 00:14:34;;;;;;;98.32;48.03;;;;;;;8.05;100.00;101848.88;5069879;28;20045;-87
2021/10/11 00:16:59;;;;;;;99.50;49.03;;;;;;;8.07;100.00;101854.09;5079584;28;20028;-86
2021/10/11 00:19:27;;;;;;;105.25;51.55;;;;;;;8.04;100.00;101852.50;5069968;28;20044;-86
2021/10/11 00:21:52;;;;;;;111.78;54.20;;;;;;;7.99;100.00;101844.91;5086852;28;20027;-85
2021/10/11 00:24:17;;;;;;;128.33;55.77;;;;;;;8.07;100.00;101851.44;5089959;28;20392;-85
2021/10/11 00:26:43;;;;;;;113.23;51.33;;;;;;;8.05;100.00;101859.50;5072981;28;20270;-85
2021/10/11 00:29:08;;;;;;;115.03;55.80;;;;;;;8.09;100.00;101865.47;5072999;28;20047;-86
2021/10/11 00:31:34;;;;;;;113.63;54.30;;;;;;;8.07;100.00;101856.75;5090991;28;20036;-86
2021/10/11 00:33:59;;;;;;;112.30;53.63;;;;;;;8.12;100.00;101859.88;5086986;28;20279;-86
2021/10/11 00:36:25;;;;;;;122.30;56.47;;;;;;;8.13;100.00;101864.25;5069627;28;20032;-86
2021/10/11 00:38:50;;;;;;;137.17;58.20;;;;;;;8.18;100.00;101870.06;5070578;28;20701;-87
2021/10/11 00:41:16;;;;;;;147.88;59.70;;;;;;;8.20;100.00;101873.47;5087111;28;20423;-85
2021/10/11 00:43:42;;;;;;;140.73;59.60;;;;;;;8.18;100.00;101872.72;5088598;28;20431;-83
2021/10/11 00:46:08;;;;;;;130.70;61.75;;;;;;;8.20;100.00;101873.47;5090365;28;20109;-85
2021/10/11 00:48:37;;;;;;;158.05;65.97;;;;;;;8.24;100.00;101882.88;5090881;28;20036;-87
2021/10/11 00:51:05;;;;;;;166.38;65.15;;;;;;;8.22;100.00;101879.50;5072093;28;20077;-85
2021/10/11 00:53:32;;;;;;;136.35;62.15;;;;;;;8.28;100.00;101889.66;5089893;28;20813;-87
2021/10/11 00:55:58;;;;;;;169.75;68.43;;;;;;;8.23;100.00;101873.22;5090881;28;20455;-87
2021/10/11 00:58:24;;;;;;;168.07;65.23;;;;;;;8.24;100.00;101873.09;5090647;28;20126;-87
2021/10/11 01:00:49;;;;;;;163.82;69.68;;;;;;;8.29;100.00;101878.06;5056943;28;20314;-86
2021/10/11 01:03:15;;;;;;;163.93;69.07;;;;;;;8.28;100.00;101878.16;5070614;28;20055;-86
2021/10/11 01:05:40;;;;;;;157.20;66.43;;;;;;;8.26;100.00;101883.59;5090622;28;20054;-86
2021/10/11 01:08:06;;;;;;;162.03;65.30;;;;;;;8.27;100.00;101881.81;5072388;28;20936;-87
2021/10/11 01:10:32;;;;;;;185.85;73.40;;;;;;;8.29;100.00;101875.41;5070418;28;20036;-85
2021/10/11 01:12:57;;;;;;;167.83;66.53;;;;;;;8.25;100.00;101872.13;5072035;23;20101;-82
2021/10/11 01:15:23;;;;;;;156.80;70.43;;;;;;;8.32;100.00;101872.50;5087837;28;20032;-82
2021/10/11 01:17:48;;;;;;;158.03;64.63;;;;;;;8.30;100.00;101869.09;5070686;28;20032;-82
2021/10/11 01:20:14;;;;;;;183.25;71.15;;;;;;;8.24;100.00;101846.50;5070403;28;20105;-81
2021/10/11 01:22:43;;;;;;;137.30;60.10;;;;;;;8.31;100.00;101865.50;5087937;28;20043;-81
2021/10/11 01:25:12;;;;;;;180.13;69.00;;;;;;;8.27;100.00;101864.03;5070129;28;20146;-82
2021/10/11 01:27:37;;;;;;;164.77;65.85;;;;;;;8.09;100.00;101845.03;5088115;28;20079;-81
2021/10/11 01:30:05;;;;;;;162.93;67.03;;;;;;;8.19;100.00;101845.16;5071148;28;20052;-81
2021/10/11 01:32:31;;;;;;;171.95;67.35;;;;;;;8.21;100.00;101844.06;5071173;28;20060;-81
2021/10/11 01:34:57;;;;;;;159.30;69.82;;;;;;;8.31;100.00;101848.66;5071618;28;20059;-85
2021/10/11 01:37:24;;;;;;;203.10;70.75;;;;;;;8.25;100.00;101847.34;5090379;28;20494;-84
2021/10/11 01:39:49;;;;;;;165.10;68.43;;;;;;;8.24;100.00;101840.31;5072068;28;20095;-83
2021/10/11 01:42:15;;;;;;;153.57;66.43;;;;;;;8.17;100.00;101837.31;5088502;28;20032;-82
2021/10/11 01:44:40;;;;;;;184.90;71.87;;;;;;;8.25;100.00;101842.00;5089510;28;20028;-81
2021/10/11 01:47:06;;;;;;;165.02;71.45;;;;;;;8.24;100.00;101843.84;5088723;28;20040;-82
2021/10/11 01:49:31;;;;;;;164.47;68.30;;;;;;;8.33;100.00;101844.91;5081336;28;20039;-82
2021/10/11 01:51:57;;;;;;;192.48;75.03;;;;;;;8.29;100.00;101846.13;5068191;28;20386;-82
2021/10/11 01:54:23;;;;;;;168.20;72.67;;;;;;;8.33;100.00;101836.09;5088173;28;20524;-83
2021/10/11 01:56:48;;;;;;;146.00;65.75;;;;;;;8.41;100.00;101834.53;5072168;28;20270;-82
2021/10/11 01:59:14;;;;;;;164.53;69.40;;;;;;;8.32;100.00;101824.59;5089187;28;20024;-83
2021/10/11 02:01:39;;;;;;;161.27;64.27;;;;;;;8.32;100.00;101819.28;5091678;28;20028;-83
2021/10/11 02:04:05;;;;;;;201.90;73.40;;;;;;;8.29;100.00;101811.53;5076433;28;20107;-83
2021/10/11 02:06:30;;;;;;;138.03;59.73;;;;;;;8.28;100.00;101812.50;5093865;28;20040;-83
2021/10/11 02:08:56;;;;;;;156.85;64.78;;;;;;;8.24;100.00;101811.91;5076364;28;20036;-82
2021/10/11 02:11:22;;;;;;;163.52;65.45;;;;;;;8.17;100.00;101812.50;5092739;28;20047;-82
2021/10/11 02:13:48;;;;;;;178.52;70.40;;;;;;;8.19;100.00;101805.25;5075210;28;20101;-82
2021/10/11 02:16:14;;;;;;;152.75;64.32;;;;;;;8.10;100.00;101800.66;5093457;28;20106;-82
2021/10/11 02:18:39;;;;;;;145.83;62.60;;;;;;;8.16;100.00;101801.00;5075577;28;20032;-83
2021/10/11 02:21:05;;;;;;;163.55;62.13;;;;;;;8.11;100.00;101789.91;5075612;28;20123;-82
2021/10/11 02:23:30;;;;;;;165.63;66.50;;;;;;;8.16;100.00;101795.69;5075098;28;20355;-81
2021/10/11 02:25:56;;;;;;;162.30;64.40;;;;;;;8.21;100.00;101805.97;5075062;28;20082;-82
2021/10/11 02:28:22;;;;;;;158.50;66.60;;;;;;;8.20;100.00;101806.94;5090560;28;20040;-81
2021/10/11 02:30:51;;;;;;;186.57;70.57;;;;;;;8.22;100.00;101794.38;5091978;28;20606;-82
2021/10/11 02:33:17;;;;;;;155.23;66.18;;;;;;;8.11;100.00;101794.38;5073857;28;20044;-81
2021/10/11 02:35:42;;;;;;;168.57;65.70;;;;;;;8.12;100.00;101802.22;5057530;28;20118;-82
2021/10/11 02:38:08;;;;;;;195.47;69.00;;;;;;;8.04;100.00;101802.81;5090201;28;20081;-82
2021/10/11 02:40:35;;;;;;;173.60;67.43;;;;;;;8.06;100.00;101807.19;5057610;28;20043;-82
2021/10/11 02:43:02;;;;;;;148.95;58.60;;;;;;;8.02;100.00;101811.88;5074449;28;20059;-82
2021/10/11 02:45:27;;;;;;;175.88;65.53;;;;;;;7.92;100.00;101811.75;5092540;28;20146;-82
2021/10/11 02:47:53;;;;;;;184.65;67.47;;;;;;;7.83;100.00;101802.69;5092829;28;20036;-82
2021/10/11 02:50:20;;;;;;;130.90;57.57;;;;;;;7.92;100.00;101806.44;5075130;28;20024;-83
2021/10/11 02:52:49;;;;;;;157.52;63.55;;;;;;;8.02;100.00;101814.56;5075054;28;20032;-83
2021/10/11 02:55:14;;;;;;;161.38;61.40;;;;;;;7.91;100.00;101809.22;5074865;28;20093;-83
2021/10/11 02:57:39;;;;;;;182.33;66.80;;;;;;;7.89;100.00;101801.38;5093010;28;20552;-83
2021/10/11 03:00:07;;;;;;;172.77;64.77;;;;;;;7.96;100.00;101801.72;5075034;28;20488;-82
2021/10/11 03:02:33;;;;;;;207.50;67.10;;;;;;;7.85;100.00;101789.28;5068410;28;20742;-83
2021/10/11 03:04:58;;;;;;;196.50;68.97;;;;;;;7.81;100.00;101782.50;5090952;28;20127;-83
2021/10/11 03:07:24;;;;;;;156.40;62.30;;;;;;;7.82;100.00;101776.25;5091260;28;20119;-83
2021/10/11 03:09:49;;;;;;;149.63;59.30;;;;;;;7.72;100.00;101778.72;5073521;28;20317;-83
2021/10/11 03:12:15;;;;;;;198.57;65.03;;;;;;;7.63;100.00;101773.28;5073037;28;20032;-82
2021/10/11 03:14:41;;;;;;;177.63;61.80;;;;;;;7.57;100.00;101770.13;5072117;28;20318;-82
2021/10/11 03:17:06;;;;;;;195.55;66.72;;;;;;;7.70;100.00;101779.81;5090487;28;20165;-83
2021/10/11 03:19:32;;;;;;;191.23;65.30;;;;;;;7.83;100.00;101797.38;5072820;28;20054;-83
2021/10/11 03:21:57;;;;;;;150.80;60.03;;;;;;;7.80;100.00;101797.63;5056077;28;20115;-83
2021/10/11 03:24:23;;;;;;;153.13;60.38;;;;;;;7.97;100.00;101803.44;5073772;28;20375;-83
2021/10/11 03:26:48;;;;;;;191.07;65.83;;;;;;;7.96;100.00;101802.59;5074263;28;20036;-83
2021/10/11 03:29:13;;;;;;;163.70;59.47;;;;;;;8.00;100.00;101785.41;5091307;28;20037;-83
2021/10/11 03:31:39;;;;;;;221.73;69.63;;;;;;;8.08;100.00;101798.13;5092329;28;20111;-83
2021/10/11 03:34:06;;;;;;;183.70;60.53;;;;;;;8.22;100.00;101797.03;5090857;28;20040;-83
2021/10/11 03:36:33;;;;;;;155.25;58.35;;;;;;;8.19;100.00;101791.94;5074467;28;20031;-84
2021/10/11 03:38:59;;;;;;;209.40;64.70;;;;;;;8.14;100.00;101791.47;5057821;28;20519;-84
2021/10/11 03:41:25;;;;;;;220.38;65.03;;;;;;;8.19;100.00;101791.94;5057852;28;20023;-83
2021/10/11 03:43:50;;;;;;;134.18;55.53;;;;;;;8.17;100.00;101784.09;5073966;28;20028;-84
2021/10/11 03:46:16;;;;;;;141.77;55.23;;;;;;;8.16;100.00;101782.38;5057857;28;20142;-83
2021/10/11 03:48:41;;;;;;;144.30;53.37;;;;;;;8.08;100.00;101773.31;5074145;28;20060;-82
2021/10/11 03:51:06;;;;;;;148.00;53.97;;;;;;;8.05;100.00;101774.41;5091905;28;20035;-82
2021/10/11 03:53:32;;;;;;;149.23;54.10;;;;;;;8.03;100.00;101777.22;5056429;28;20039;-83
2021/10/11 03:55:57;;;;;;;154.70;55.87;;;;;;;8.02;100.00;101780.81;5073803;28;20028;-83
2021/10/11 03:58:23;;;;;;;172.60;60.37;;;;;;;8.09;100.00;101777.69;5091321;28;20032;-84
2021/10/11 04:00:48;;;;;;;135.60;51.63;;;;;;;8.08;100.00;101778.63;5091703;28;20035;-84
2021/10/11 04:03:13;;;;;;;172.90;54.00;;;;;;;8.10;100.00;101771.38;5073558;28;20062;-84
2021/10/11 04:05:39;;;;;;;134.20;51.33;;;;;;;8.16;100.00;101773.56;5074397;28;20444;-85
2021/10/11 04:08:12;;;;;;;145.20;52.73;;;;;;;8.19;100.00;101782.16;5091137;28;20054;-85
2021/10/11 04:10:47;;;;;;;127.55;48.63;;;;;;;8.21;100.00;101774.03;5090187;28;20633;-83
2021/10/11 04:13:19;;;;;;;154.13;55.72;;;;;;;8.17;100.00;101769.94;5073278;28;20036;-82
2021/10/11 04:15:44;;;;;;;136.75;51.40;;;;;;;8.21;100.00;101772.22;5073507;28;20181;-82
2021/10/11 04:18:10;;;;;;;155.40;53.33;;;;;;;8.10;100.00;101763.41;5090221;28;20160;-82
2021/10/11 04:20:35;;;;;;;129.20;50.47;;;;;;;8.01;100.00;101757.03;5073386;28;20140;-83
2021/10/11 04:23:01;;;;;;;139.70;48.20;;;;;;;7.91;100.00;101756.03;5073174;28;20028;-82
2021/10/11 04:25:26;;;;;;;116.45;44.97;;;;;;;7.86;100.00;101767.03;5089516;28;20365;-83
2021/10/11 04:27:52;;;;;;;109.20;41.83;;;;;;;7.72;100.00;101761.94;5072502;28;20427;-83
2021/10/11 04:30:17;;;;;;;92.40;39.47;;;;;;;7.74;100.00;101766.19;5089490;28;20456;-83
2021/10/11 04:32:43;;;;;;;98.40;40.30;;;;;;;7.59;100.00;101762.91;5072432;28;20039;-82
2021/10/11 04:35:08;;;;;;;84.53;38.20;;;;;;;7.71;100.00;101761.09;5089794;28;20058;-83
2021/10/11 04:37:34;;;;;;;188.15;53.22;;;;;;;7.76;100.00;101774.03;5090250;28;20399;-82
2021/10/11 04:39:59;;;;;;;161.05;50.67;;;;;;;7.71;100.00;101752.28;5072465;28;20032;-83
2021/10/11 04:42:25;;;;;;;136.77;44.47;;;;;;;7.56;100.00;101747.19;5072487;28;20032;-83
2021/10/11 04:44:50;;;;;;;101.57;39.53;;;;;;;7.58;100.00;101755.03;5090256;28;20663;-83
2021/10/11 04:47:16;;;;;;;87.82;38.35;;;;;;;7.44;100.00;101747.28;5056159;28;20040;-83
2021/10/11 04:49:41;;;;;;;97.20;39.97;;;;;;;7.38;100.00;101745.97;5089504;28;20039;-82
2021/10/11 04:52:07;;;;;;;145.50;46.30;;;;;;;7.25;100.00;101754.00;5091054;28;20058;-83
2021/10/11 04:54:32;;;;;;;93.00;37.00;;;;;;;7.07;100.00;101735.00;5072570;28;20522;-83
2021/10/11 04:56:57;;;;;;;91.30;36.37;;;;;;;7.03;100.00;101748.63;5090507;28;20024;-82
2021/10/11 04:59:24;;;;;;;155.55;45.30;;;;;;;7.02;100.00;101736.28;5090509;28;20334;-83
2021/10/11 05:01:49;;;;;;;77.60;35.45;;;;;;;7.08;100.00;101754.44;5056964;28;20106;-83
2021/10/11 05:04:14;;;;;;;90.87;36.60;;;;;;;6.96;100.00;101737.63;5073618;28;20028;-83
2021/10/11 05:06:40;;;;;;;94.40;34.60;;;;;;;7.03;100.00;101741.50;5073828;28;20036;-82
2021/10/11 05:09:05;;;;;;;109.20;39.23;;;;;;;6.98;100.00;101735.69;5073717;28;20043;-84
2021/10/11 05:11:31;;;;;;;91.03;33.83;;;;;;;6.95;100.00;101741.22;5057266;28;20035;-83
2021/10/11 05:13:56;;;;;;;93.63;36.83;;;;;;;7.03;100.00;101754.78;5056312;28;20036;-84
2021/10/11 05:16:23;;;;;;;93.07;34.77;;;;;;;6.91;100.00;101747.72;5091160;28;20122;-84
2021/10/11 05:18:49;;;;;;;100.90;37.55;;;;;;;6.90;100.00;101760.13;5090401;28;20042;-83
2021/10/11 05:21:15;;;;;;;102.53;36.65;;;;;;;6.78;100.00;101754.91;5073793;28;20456;-84
2021/10/11 05:23:40;;;;;;;89.13;34.58;;;;;;;6.79;100.00;101761.91;5073861;28;20440;-84
2021/10/11 05:26:06;;;;;;;95.53;34.63;;;;;;;6.68;100.00;101760.88;5091480;28;20042;-84
2021/10/11 05:28:32;;;;;;;86.40;31.17;;;;;;;6.65;100.00;101766.44;5074015;28;20047;-83
2021/10/11 05:30:57;;;;;;;148.57;39.47;;;;;;;6.66;100.00;101769.91;5090391;28;20040;-83
2021/10/11 05:33:23;;;;;;;104.43;32.83;;;;;;;6.60;100.00;101763.22;5087277;28;20047;-83
2021/10/11 05:35:53;;;;;;;73.25;30.13;;;;;;;6.64;100.00;101770.03;5087880;28;20283;-83
2021/10/11 05:38:20;;;;;;;85.72;32.90;;;;;;;6.64;100.00;101780.63;5091052;28;20044;-83
2021/10/11 05:40:45;;;;;;;84.90;31.58;;;;;;;6.57;100.00;101774.09;5057480;28;20506;-83
2021/10/11 05:43:11;;;;;;;82.38;29.92;;;;;;;6.52;100.00;101776.22;5091666;28;20043;-83
2021/10/11 05:45:36;;;;;;;67.53;27.27;;;;;;;6.49;100.00;101773.81;5091549;28;20044;-82
2021/10/11 05:48:02;;;;;;;69.80;28.70;;;;;;;6.59;100.00;101784.59;5092145;28;20040;-83
2021/10/11 05:50:27;;;;;;;109.20;36.00;;;;;;;6.58;100.00;101775.78;5074142;28;20641;-83
2021/10/11 05:52:53;;;;;;;122.03;34.83;;;;;;;6.64;100.00;101779.78;5074148;28;20040;-84
2021/10/11 05:55:19;;;;;;;71.78;27.40;;;;;;;6.75;100.00;101793.13;5094559;28;20043;-83
2021/10/11 05:57:44;;;;;;;78.73;31.30;;;;;;;6.73;100.00;101795.88;5077310;28;20039;-84
2021/10/11 06:00:10;;;;;;;66.40;27.07;;;;;;;6.70;100.00;101796.13;5095255;28;20703;-84
2021/10/11 06:02:36;;;;;;;75.70;29.80;;;;;;;6.71;100.00;101776.56;5077571;28;20353;-84
2021/10/11 06:05:02;;;;;;;64.80;25.75;;;;;;;6.82;100.00;101788.22;5077361;28;20035;-84
2021/10/11 06:07:28;;;;;;;75.07;28.42;;;;;;;6.73;100.00;101779.97;5091696;28;20031;-84
2021/10/11 06:09:57;;;;;;;69.90;26.90;;;;;;;6.78;100.00;101786.75;5075419;28;20038;-84
2021/10/11 06:12:23;;;;;;;82.20;29.85;;;;;;;6.91;100.00;101792.88;5076375;28;20090;-83
2021/10/11 06:14:52;;;;;;;69.82;26.35;;;;;;;6.91;100.00;101784.91;5093291;28;20032;-82
2021/10/11 06:17:18;;;;;;;67.90;28.85;;;;;;;7.06;100.00;101797.03;5060493;28;20075;-81
2021/10/11 06:19:43;;;;;;;67.65;24.15;;;;;;;7.26;100.00;101784.94;5076674;28;20074;-83
2021/10/11 06:22:08;;;;;;;63.53;25.30;;;;;;;7.43;100.00;101796.94;5094496;28;20036;-81
2021/10/11 06:24:34;;;;;;;61.63;24.60;;;;;;;7.49;100.00;101795.59;5076063;28;20040;-81
2021/10/11 06:27:02;;;;;;;65.83;22.20;;;;;;;7.55;100.00;101806.63;5076087;28;20097;-83
2021/10/11 06:29:28;;;;;;;77.40;23.67;;;;;;;7.65;100.00;101796.13;5076306;28;20036;-81
2021/10/11 06:31:53;;;;;;;58.23;22.57;;;;;;;7.86;100.00;101806.91;5059748;28;20035;-83
2021/10/11 06:34:19;;;;;;;50.50;21.50;;;;;;;7.99;100.00;101807.66;5076280;28;20036;-83
2021/10/11 06:36:44;;;;;;;51.33;23.10;;;;;;;8.25;100.00;101800.28;5093555;28;20044;-84
2021/10/11 06:39:10;;;;;;;52.70;20.40;;;;;;;8.60;100.00;101811.78;5094310;28;20051;-86
2021/10/11 06:41:36;;;;;;;44.00;21.83;;;;;;;9.01;100.00;101819.06;5059630;28;20038;-89
2021/10/11 06:44:01;;;;;;;51.75;21.60;;;;;;;9.36;100.00;101817.09;5094089;28;20024;-87
2021/10/11 06:46:27;;;;;;;45.65;19.08;;;;;;;9.73;100.00;101807.69;5086599;28;20090;-88
2021/10/11 06:48:52;;;;;;;41.57;15.57;;;;;;;9.73;100.00;101805.00;5094076;28;20036;-90
2021/10/11 06:51:17;;;;;;;35.20;14.60;;;;;;;9.93;100.00;101797.13;5093822;28;20285;-90
2021/10/11 06:53:43;;;;;;;30.65;12.77;;;;;;;9.70;100.00;101781.28;5075994;28;20543;-90
2021/10/11 06:56:08;;;;;;;36.37;12.83;;;;;;;9.82;100.00;101773.22;5092141;28;20024;-90
2021/10/11 06:58:34;;;;;;;25.90;11.70;;;;;;;9.77;100.00;101764.78;5090522;28;20147;-90
2021/10/11 07:01:00;;;;;;;26.55;11.27;;;;;;;9.69;100.00;101763.59;5073533;28;20047;-90
2021/10/11 07:03:26;;;;;;;24.50;10.17;;;;;;;9.74;100.00;101757.88;5090936;28;20042;-91
2021/10/11 07:05:58;;;;;;;24.70;10.38;;;;;;;9.86;100.00;101756.81;5073335;28;20483;-91
2021/10/11 07:08:23;;;;;;;27.95;10.75;;;;;;;9.82;100.00;101743.88;5091329;28;20040;-91
2021/10/11 07:10:53;;;;;;;22.67;8.88;;;;;;;9.81;100.00;101751.03;5091368;28;20042;-91
2021/10/11 07:13:19;;;;;;;22.08;7.75;;;;;;;9.93;100.00;101741.97;5091815;28;20358;-90
2021/10/11 07:15:44;;;;;;;22.13;7.93;;;;;;;9.97;100.00;101729.19;5092431;28;20101;-91
2021/10/11 07:18:09;;;;;;;18.03;6.47;;;;;;;10.13;100.00;101728.69;5073518;28;20082;-89
2021/10/11 07:20:35;;;;;;;20.97;6.00;;;;;;;10.23;100.00;101740.25;5090040;28;20074;-89
2021/10/11 07:23:00;;;;;;;16.65;4.60;;;;;;;10.13;100.00;101737.53;5072983;28;20039;-89
2021/10/11 07:25:26;;;;;;;17.57;6.07;;;;;;;10.18;100.00;101736.28;5090113;28;20096;-89
2021/10/11 07:27:52;;;;;;;15.43;4.15;;;;;;;10.18;100.00;101726.44;5073511;28;20376;-90
2021/10/11 07:30:17;;;;;;;9.63;4.00;;;;;;;10.21;100.00;101738.66;5072806;28;20062;-87
2021/10/11 07:32:43;;;;;;;13.40;3.50;;;;;;;10.20;100.00;101737.00;5087980;28;20027;-87
2021/10/11 07:35:08;;;;;;;15.30;4.93;;;;;;;10.51;100.00;101732.44;5087985;28;20097;-85
2021/10/11 07:37:34;;;;;;;18.40;4.23;;;;;;;11.29;100.00;101735.16;5088329;28;20056;-83
2021/10/11 07:39:59;;;;;;;6.53;3.97;;;;;;;11.80;100.00;101732.06;5086859;28;20059;-83
2021/10/11 07:42:25;;;;;;;11.13;2.95;;;;;;;12.59;100.00;101744.06;5087748;28;20162;-82
2021/10/11 07:44:51;;;;;;;12.90;3.77;;;;;;;13.27;98.62;101726.59;5087694;28;20500;-81
2021/10/11 07:47:16;;;;;;;13.00;3.60;;;;;;;13.66;92.82;101726.22;5070716;28;20032;-81
2021/10/11 07:49:42;;;;;;;9.20;2.73;;;;;;;14.01;89.41;101719.84;5067455;28;20037;-81
2021/10/11 07:52:07;;;;;;;10.00;2.53;;;;;;;14.44;88.27;101725.19;5085537;28;20469;-80
2021/10/11 07:54:33;;;;;;;7.07;3.07;;;;;;;15.02;83.77;101705.47;5086901;28;20306;-80
2021/10/11 07:56:58;;;;;;;13.27;2.70;;;;;;;15.19;81.49;101701.78;5088414;28;20036;-80
2021/10/11 07:59:25;;;;;;;7.53;1.93;;;;;;;15.81;79.38;101690.38;5070016;28;20032;-80
2021/10/11 08:01:51;;;;;;;12.88;3.10;;;;;;;16.06;76.54;101687.59;5088784;28;20508;-80
2021/10/11 08:04:17;;;;;;;7.85;2.60;;;;;;;16.63;76.10;101695.34;5087320;28;20024;-80
2021/10/11 08:06:42;;;;;;;9.95;3.05;;;;;;;15.76;76.04;101697.31;5087240;28;20108;-79
2021/10/11 08:09:09;;;;;;;7.67;2.50;;;;;;;15.52;77.29;101703.56;5088426;28;20024;-79
2021/10/11 08:11:35;;;;;;;12.40;2.42;;;;;;;16.12;77.23;101707.59;5087277;28;20364;-80
2021/10/11 08:14:01;;;;;;;12.73;2.60;;;;;;;17.12;73.29;101680.66;5086962;28;20097;-79
2021/10/11 08:16:26;;;;;;;11.85;2.20;;;;;;;17.29;71.50;101668.66;5087127;28;20133;-80
2021/10/11 08:18:52;;;;;;;11.63;2.87;;;;;;;16.72;73.86;101671.84;5088097;28;20047;-80
2021/10/11 08:21:17;;;;;;;14.97;2.90;;;;;;;17.15;70.80;101668.66;5088140;28;20347;-80
2021/10/11 08:23:43;;;;;;;8.47;2.73;;;;;;;18.01;68.33;101669.06;5087826;28;20028;-80
2021/10/11 08:26:09;;;;;;;10.27;3.47;;;;;;;17.45;69.83;101670.34;5087133;28;20031;-80
2021/10/11 08:28:36;;;;;;;;;;;;;;;18.08;67.70;101664.56;5070663;28;20526;-80
2021/10/11 08:31:01;;;;;;;7.75;2.88;;;;;;;18.22;68.58;101674.50;5070032;28;19924;-80
2021/10/11 08:33:27;;;;;;;10.13;2.30;;;;;;;18.74;65.62;101664.41;5087716;28;20024;-81
2021/10/11 08:35:52;;;;;;;8.90;1.60;;;;;;;18.94;65.38;101664.63;5086997;28;20036;-81
2021/10/11 08:38:18;;;;;;;10.53;2.93;;;;;;;19.15;65.36;101661.88;5087795;28;20063;-81
2021/10/11 08:40:46;;;;;;;10.03;2.67;;;;;;;19.82;63.37;101651.47;5069954;28;20024;-81
2021/10/11 08:43:12;;;;;;;8.40;2.47;;;;;;;19.37;63.50;101645.56;5054290;28;20032;-82
2021/10/11 08:45:37;;;;;;;8.27;1.90;;;;;;;18.53;65.20;101655.28;5088786;28;20028;-81
2021/10/11 08:48:03;;;;;;;8.55;1.98;;;;;;;17.41;66.95;101650.16;5071113;28;20465;-81
2021/10/11 08:50:28;;;;;;;6.03;2.00;;;;;;;16.87;70.16;101670.06;5089006;28;20036;-80
2021/10/11 08:52:54;;;;;;;10.93;2.30;;;;;;;16.31;72.41;101682.91;5071038;28;20044;-80
2021/10/11 08:55:20;;;;;;;13.45;1.98;;;;;;;16.00;73.17;101677.53;5070441;28;20024;-80
2021/10/11 08:57:46;;;;;;;7.10;1.95;;;;;;;17.18;69.69;101669.09;5070816;28;20047;-81
2021/10/11 09:00:18;;;;;;;12.63;2.53;;;;;;;16.54;72.32;101682.09;5071056;28;20023;-80
2021/10/11 09:02:55;;;;;;;8.30;1.95;;;;;;;16.37;74.64;101689.47;5070388;28;20046;-81
2021/10/11 09:05:32;;;;;;;14.23;2.78;;;;;;;17.55;70.85;101653.88;5087360;28;20694;-81
2021/10/11 09:08:06;;;;;;;6.53;1.70;;;;;;;18.16;66.60;101650.94;5068213;28;20415;-81
2021/10/11 09:10:47;;;;;;;7.32;2.00;;;;;;;18.35;65.86;101635.97;5068917;28;20032;-81
2021/10/11 09:13:13;;;;;;;10.85;2.67;;;;;;;18.88;64.40;101639.19;5085982;28;20040;-82
2021/10/11 09:15:39;;;;;;;7.72;1.85;;;;;;;19.02;64.94;101636.59;5069597;28;20038;-81
2021/10/11 09:18:05;;;;;;;8.98;2.75;;;;;;;19.19;62.37;101625.25;5069519;28;20407;-81
2021/10/11 09:20:36;;;;;;;9.68;2.08;;;;;;;18.02;64.71;101631.03;5087455;28;20052;-81
2021/10/11 09:23:03;;;;;;;5.97;1.67;;;;;;;17.67;66.07;101609.16;5069472;28;20042;-80
2021/10/11 09:25:34;;;;;;;8.95;2.35;;;;;;;18.66;62.93;101634.78;5069185;28;20030;-82
2021/10/11 09:28:00;;;;;;;8.63;1.50;;;;;;;18.77;63.03;101604.53;5069590;28;20432;-81
2021/10/11 09:30:29;;;;;;;6.30;1.30;;;;;;;17.62;63.71;101592.69;5069135;28;20046;-81
2021/10/11 09:33:08;;;;;;;9.77;2.58;;;;;;;17.01;66.70;101625.25;5086919;28;20455;-81
2021/10/11 09:35:35;;;;;;;5.68;1.40;;;;;;;18.19;65.07;101638.91;5069431;28;20411;-81
2021/10/11 09:38:01;;;;;;;4.75;1.30;;;;;;;17.89;64.08;101625.50;5069513;28;20032;-80
2021/10/11 09:40:39;;;;;;;6.05;1.77;;;;;;;18.25;64.02;101616.53;5087187;28;20036;-80
2021/10/11 09:43:16;;;;;;;6.72;2.10;;;;;;;18.04;63.64;101620.88;5086947;28;20050;-80
2021/10/11 09:45:42;;;;;;;10.70;1.70;;;;;;;18.17;64.84;101625.59;5069270;28;20028;-79
2021/10/11 09:48:08;;;;;;;9.05;1.70;;;;;;;17.47;64.15;101595.44;5086615;28;20036;-80
2021/10/11 09:50:35;;;;;;;5.70;1.65;;;;;;;18.00;63.18;101611.47;5070797;28;20054;-79
2021/10/11 09:53:02;;;;;;;3.83;1.30;;;;;;;18.21;63.30;101610.66;5085840;28;20051;-79
2021/10/11 09:55:28;;;;;;;8.77;2.78;;;;;;;18.32;62.14;101595.81;5068686;28;20039;-79
2021/10/11 09:57:55;;;;;;;9.32;1.23;;;;;;;18.95;61.10;101596.78;5086926;28;20028;-79
2021/10/11 10:00:21;;;;;;;4.40;1.20;;;;;;;19.29;62.03;101608.69;5087003;28;20372;-79
2021/10/11 10:02:46;;;;;;;5.40;1.03;;;;;;;19.29;59.00;101568.06;5069297;28;20016;-79
2021/10/11 10:05:24;;;;;;;9.55;1.65;;;;;;;17.82;62.16;101575.94;5068781;28;20342;-79
2021/10/11 10:07:52;;;;;;;8.63;1.45;;;;;;;18.16;61.47;101590.66;5085816;28;20032;-79
2021/10/11 10:10:21;;;;;;;4.53;1.40;;;;;;;18.94;61.31;101597.84;5085857;28;20039;-79
2021/10/11 10:12:48;;;;;;;3.88;0.98;;;;;;;18.30;62.00;101592.44;5069029;28;20039;-79
2021/10/11 10:15:29;;;;;;;8.32;2.08;;;;;;;17.78;62.73;101594.34;5085567;28;20031;-79
2021/10/11 10:18:08;;;;;;;8.23;1.60;;;;;;;18.15;61.88;101579.00;5068922;28;20249;-79
2021/10/11 10:20:36;;;;;;;7.03;1.80;;;;;;;17.91;62.69;101578.34;5086522;28;20039;-79
2021/10/11 10:23:03;;;;;;;6.35;1.55;;;;;;;17.95;62.19;101573.38;5070640;28;20365;-78
2021/10/11 10:25:29;;;;;;;8.15;1.45;;;;;;;18.33;62.24;101587.50;5055764;28;20078;-79
2021/10/11 10:28:12;;;;;;;3.67;1.42;;;;;;;17.06;63.13;101559.97;5072541;28;20408;-79
2021/10/11 10:30:39;;;;;;;6.80;1.75;;;;;;;17.65;64.49;101584.25;5090334;28;20032;-79
2021/10/11 10:33:05;;;;;;;;;;;;;;;17.79;63.00;101579.81;5072819;28;20444;-79
2021/10/11 10:35:34;;;;;;;8.23;1.45;;;;;;;17.85;63.52;101575.56;5071837;28;19912;-78
2021/10/11 10:38:01;;;;;;;5.88;1.35;;;;;;;16.72;65.16;101577.50;5073839;28;20372;-78
2021/10/11 10:40:32;;;;;;;8.15;1.40;;;;;;;17.14;65.24;101586.00;5091359;28;20028;-79
2021/10/11 10:43:09;;;;;;;4.57;1.45;;;;;;;16.54;68.30;101606.63;5091297;28;20051;-79
2021/10/11 10:45:36;;;;;;;7.78;1.67;;;;;;;16.10;69.81;101615.34;5091145;28;20452;-78
2021/10/11 10:48:03;;;;;;;8.60;1.75;;;;;;;16.34;68.78;101609.81;5073248;28;20484;-78
2021/10/11 10:50:32;;;;;;;3.97;1.33;;;;;;;17.54;64.70;101592.81;5073502;28;20039;-78
2021/10/11 10:53:00;;;;;;;5.60;1.17;;;;;;;16.65;65.42;101571.97;5056549;28;20039;-78
2021/10/11 10:55:26;;;;;;;3.13;0.90;;;;;;;16.37;66.99;101574.41;5072629;28;20054;-79
2021/10/11 10:58:00;;;;;;;4.82;1.08;;;;;;;16.08;67.78;101580.50;5091189;28;20035;-79
2021/10/11 11:00:26;;;;;;;6.35;1.35;;;;;;;15.80;70.35;101599.88;5090991;28;20038;-78
2021/10/11 11:02:52;;;;;;;9.82;1.50;;;;;;;15.23;73.48;101634.19;5073156;28;20028;-77
2021/10/11 11:05:20;;;;;;;4.00;1.00;;;;;;;14.92;73.56;101626.84;5072796;28;20582;-79
2021/10/11 11:07:50;;;;;;;6.90;1.45;;;;;;;14.43;76.36;101635.69;5090825;28;20028;-77
2021/10/11 11:10:18;;;;;;;7.30;1.20;;;;;;;14.11;78.35;101648.03;5089749;28;20051;-77